This is the latest recevied weather packets stored in our database for station/object AB0TJ. If no packets are shown the sender has not sent any weather packets the latest 10 day(s).
| Time | Temp. | Humidity | Pressure | Rain* | Wind** | Luminosity | Snow |
|---|---|---|---|---|---|---|---|
| 1777580186 | 18.33° C | 27% | 1014.2 hPa | 0 mm | - | 761 W/m² | - |
| 1777579587 | 18.33° C | 29% | 1014.7 hPa | 0 mm | - | 858 W/m² | - |
| 1777578989 | 18.33° C | 29% | 1014.6 hPa | 0 mm | - | 889 W/m² | - |
| 1777578508 | 18.33° C | 29% | 1014.5 hPa | 0 mm | - | 944 W/m² | - |
| 1777578019 | 18.33° C | 25% | 1014.6 hPa | 0 mm | - | 229 W/m² | - |
| 1777577524 | 18.89° C | 25% | 1014.6 hPa | 0 mm | - | 243 W/m² | - |
| 1777576984 | 18.89° C | 24% | 1014.6 hPa | 0 mm | - | 530 W/m² | - |
| 1777576444 | 18.33° C | 26% | 1014.6 hPa | 0 mm | - | 918 W/m² | - |
| 1777575959 | 18.33° C | 25% | 1014.6 hPa | 0 mm | - | 935 W/m² | - |
| 1777575414 | 17.78° C | 26% | 1014.7 hPa | 0 mm | - | 885 W/m² | - |
| 1777574892 | 17.22° C | 28% | 1014.8 hPa | 0 mm | - | 858 W/m² | - |
| 1777574349 | 17.22° C | 29% | 1015 hPa | 0 mm | - | 827 W/m² | - |
| 1777573839 | 17.22° C | 29% | 1015.1 hPa | 0 mm | - | 453 W/m² | - |
| 1777573321 | 18.33° C | 27% | 1015.3 hPa | 0 mm | - | 113 W/m² | - |
| 1777572836 | 18.89° C | 25% | 1015.3 hPa | 0 mm | - | 183 W/m² | - |
| 1777572299 | 18.89° C | 26% | 1015.5 hPa | 0 mm | - | 368 W/m² | - |
| 1777571754 | 18.33° C | 27% | 1015.5 hPa | 0 mm | - | 819 W/m² | - |
| 1777571244 | 17.78° C | 27% | 1015.6 hPa | 0 mm | - | 756 W/m² | - |
| 1777570704 | 17.78° C | 27% | 1015.8 hPa | 0 mm | - | 738 W/m² | - |
| 1777570112 | 17.78° C | 28% | 1015.9 hPa | 0 mm | - | 718 W/m² | - |
| 1777569574 | 17.78° C | 27% | 1016.1 hPa | 0 mm | - | 700 W/m² | - |
| 1777569029 | 17.78° C | 27% | 1016.2 hPa | 0 mm | - | 683 W/m² | - |
| 1777568525 | 17.78° C | 27% | 1016.4 hPa | 0 mm | - | 668 W/m² | - |
| 1777568037 | 17.22° C | 28% | 1016.2 hPa | 0 mm | - | 651 W/m² | - |
| 1777567539 | 17.22° C | 27% | 1016.4 hPa | 0 mm | - | 627 W/m² | - |
* Rain latest hour (hover to see other rain measurements)
** Current wind speed in m/s (hover to see current wind gust speed)